sensor_id;sensor_type;location;lat;lon;timestamp;pressure;altitude;pressure_sealevel;temperature;humidity
59272;BME280;45043;51.068;7.026;2023-02-21T00:00:59;100954.97;;;5.27;66.45
59272;BME280;45043;51.068;7.026;2023-02-21T00:04:18;100967.44;;;5.25;66.37
59272;BME280;45043;51.068;7.026;2023-02-21T00:07:40;100959.44;;;5.17;66.83
59272;BME280;45043;51.068;7.026;2023-02-21T00:11:00;100960.09;;;5.19;66.44
59272;BME280;45043;51.068;7.026;2023-02-21T00:14:19;100957.94;;;5.14;66.97
59272;BME280;45043;51.068;7.026;2023-02-21T00:17:37;100958.97;;;5.04;66.53
59272;BME280;45043;51.068;7.026;2023-02-21T00:20:56;100969.25;;;4.97;67.18
59272;BME280;45043;51.068;7.026;2023-02-21T00:24:16;100953.25;;;4.90;67.03
59272;BME280;45043;51.068;7.026;2023-02-21T00:27:36;100957.44;;;4.83;67.22
59272;BME280;45043;51.068;7.026;2023-02-21T00:30:55;100968.78;;;4.84;67.84
59272;BME280;45043;51.068;7.026;2023-02-21T00:34:14;100965.91;;;4.77;67.80
59272;BME280;45043;51.068;7.026;2023-02-21T00:37:33;100965.53;;;4.72;67.58
59272;BME280;45043;51.068;7.026;2023-02-21T00:40:52;100957.22;;;4.67;67.81
59272;BME280;45043;51.068;7.026;2023-02-21T00:44:11;100964.44;;;4.65;67.86
59272;BME280;45043;51.068;7.026;2023-02-21T00:47:30;100963.31;;;4.67;68.36
59272;BME280;45043;51.068;7.026;2023-02-21T00:50:49;100965.81;;;4.69;68.11
59272;BME280;45043;51.068;7.026;2023-02-21T00:54:08;100971.91;;;4.69;67.93
59272;BME280;45043;51.068;7.026;2023-02-21T00:57:26;100968.44;;;4.69;68.53
59272;BME280;45043;51.068;7.026;2023-02-21T01:00:46;100957.31;;;4.75;68.27
59272;BME280;45043;51.068;7.026;2023-02-21T01:04:05;100955.75;;;4.82;68.37
59272;BME280;45043;51.068;7.026;2023-02-21T01:07:23;100952.75;;;4.77;68.16
59272;BME280;45043;51.068;7.026;2023-02-21T01:10:42;100945.38;;;4.81;68.53
59272;BME280;45043;51.068;7.026;2023-02-21T01:14:01;100953.53;;;4.87;68.34
59272;BME280;45043;51.068;7.026;2023-02-21T01:17:20;100950.91;;;4.87;68.33
59272;BME280;45043;51.068;7.026;2023-02-21T01:20:39;100953.78;;;4.94;68.24
59272;BME280;45043;51.068;7.026;2023-02-21T01:24:00;100937.97;;;4.94;68.12
59272;BME280;45043;51.068;7.026;2023-02-21T01:27:19;100939.22;;;4.90;68.46
59272;BME280;45043;51.068;7.026;2023-02-21T01:30:38;100942.38;;;4.93;68.06
59272;BME280;45043;51.068;7.026;2023-02-21T01:33:57;100934.34;;;4.95;68.38
59272;BME280;45043;51.068;7.026;2023-02-21T01:37:15;100934.34;;;4.95;68.22
59272;BME280;45043;51.068;7.026;2023-02-21T01:40:38;100936.25;;;5.03;68.12
59272;BME280;45043;51.068;7.026;2023-02-21T01:44:00;100928.72;;;5.08;67.95
59272;BME280;45043;51.068;7.026;2023-02-21T01:47:21;100931.22;;;5.09;67.76
59272;BME280;45043;51.068;7.026;2023-02-21T01:50:41;100936.19;;;5.12;67.90
59272;BME280;45043;51.068;7.026;2023-02-21T01:54:00;100926.19;;;5.16;67.96
59272;BME280;45043;51.068;7.026;2023-02-21T01:57:21;100928.50;;;5.19;67.71
59272;BME280;45043;51.068;7.026;2023-02-21T02:00:40;100924.59;;;5.23;67.59
59272;BME280;45043;51.068;7.026;2023-02-21T02:04:00;100917.25;;;5.27;67.40
59272;BME280;45043;51.068;7.026;2023-02-21T02:07:19;100919.75;;;5.28;67.23
59272;BME280;45043;51.068;7.026;2023-02-21T02:10:38;100909.88;;;5.30;67.37
59272;BME280;45043;51.068;7.026;2023-02-21T02:17:41;100910.47;;;5.24;67.35
59272;BME280;45043;51.068;7.026;2023-02-21T02:21:06;100911.34;;;5.15;67.63
59272;BME280;45043;51.068;7.026;2023-02-21T02:24:30;100913.59;;;5.10;67.45
59272;BME280;45043;51.068;7.026;2023-02-21T02:27:41;100906.59;;;5.01;67.97
59272;BME280;45043;51.068;7.026;2023-02-21T02:40:44;100899.97;;;4.97;67.88
59272;BME280;45043;51.068;7.026;2023-02-21T02:43:58;100914.50;;;5.01;68.14
59272;BME280;45043;51.068;7.026;2023-02-21T02:47:03;100913.59;;;4.92;68.13
59272;BME280;45043;51.068;7.026;2023-02-21T02:50:06;100905.31;;;4.87;68.32
59272;BME280;45043;51.068;7.026;2023-02-21T02:53:09;100908.28;;;4.74;68.93
59272;BME280;45043;51.068;7.026;2023-02-21T02:56:12;100908.44;;;4.73;68.72
59272;BME280;45043;51.068;7.026;2023-02-21T02:59:20;100903.63;;;4.68;68.97
59272;BME280;45043;51.068;7.026;2023-02-21T03:05:59;100892.16;;;4.59;68.90
59272;BME280;45043;51.068;7.026;2023-02-21T03:12:41;100885.00;;;4.52;68.80
59272;BME280;45043;51.068;7.026;2023-02-21T03:19:15;100888.63;;;4.51;69.28
59272;BME280;45043;51.068;7.026;2023-02-21T03:22:20;100891.91;;;4.53;69.63
59272;BME280;45043;51.068;7.026;2023-02-21T03:25:22;100888.34;;;4.54;69.66
59272;BME280;45043;51.068;7.026;2023-02-21T03:28:24;100884.47;;;4.48;69.60
59272;BME280;45043;51.068;7.026;2023-02-21T03:31:31;100883.38;;;4.51;69.49
59272;BME280;45043;51.068;7.026;2023-02-21T03:34:33;100885.28;;;4.49;69.77
59272;BME280;45043;51.068;7.026;2023-02-21T03:37:38;100873.03;;;4.39;69.91
59272;BME280;45043;51.068;7.026;2023-02-21T03:40:40;100883.94;;;4.44;69.99
59272;BME280;45043;51.068;7.026;2023-02-21T03:43:40;100877.72;;;4.45;69.72
59272;BME280;45043;51.068;7.026;2023-02-21T03:46:40;100883.13;;;4.44;69.99
59272;BME280;45043;51.068;7.026;2023-02-21T03:49:41;100881.19;;;4.46;70.10
59272;BME280;45043;51.068;7.026;2023-02-21T03:52:42;100886.97;;;4.50;70.05
59272;BME280;45043;51.068;7.026;2023-02-21T03:55:43;100880.56;;;4.52;69.55
59272;BME280;45043;51.068;7.026;2023-02-21T03:58:50;100877.72;;;4.45;69.76
59272;BME280;45043;51.068;7.026;2023-02-21T04:01:51;100877.03;;;4.43;69.83
59272;BME280;45043;51.068;7.026;2023-02-21T04:04:52;100883.50;;;4.49;69.88
59272;BME280;45043;51.068;7.026;2023-02-21T04:07:56;100881.09;;;4.56;70.02
59272;BME280;45043;51.068;7.026;2023-02-21T04:10:56;100880.16;;;4.57;69.51
59272;BME280;45043;51.068;7.026;2023-02-21T04:14:00;100889.41;;;4.61;69.77
59272;BME280;45043;51.068;7.026;2023-02-21T04:17:01;100884.97;;;4.61;69.62
59272;BME280;45043;51.068;7.026;2023-02-21T04:20:02;100880.81;;;4.59;69.88
59272;BME280;45043;51.068;7.026;2023-02-21T04:23:05;100879.16;;;4.58;69.59
59272;BME280;45043;51.068;7.026;2023-02-21T04:26:07;100873.63;;;4.61;69.50
59272;BME280;45043;51.068;7.026;2023-02-21T04:29:22;100870.00;;;4.62;69.57
59272;BME280;45043;51.068;7.026;2023-02-21T04:32:23;100873.47;;;4.62;69.56
59272;BME280;45043;51.068;7.026;2023-02-21T04:35:23;100875.25;;;4.62;69.54
59272;BME280;45043;51.068;7.026;2023-02-21T04:38:24;100871.66;;;4.63;69.50
59272;BME280;45043;51.068;7.026;2023-02-21T04:41:25;100873.28;;;4.64;69.31
59272;BME280;45043;51.068;7.026;2023-02-21T04:44:26;100867.38;;;4.62;69.07
59272;BME280;45043;51.068;7.026;2023-02-21T04:47:26;100864.56;;;4.63;69.23
59272;BME280;45043;51.068;7.026;2023-02-21T04:50:27;100873.69;;;4.69;69.39
59272;BME280;45043;51.068;7.026;2023-02-21T04:53:27;100860.91;;;4.74;69.41
59272;BME280;45043;51.068;7.026;2023-02-21T04:56:28;100854.38;;;4.78;69.27
59272;BME280;45043;51.068;7.026;2023-02-21T04:59:28;100862.38;;;4.86;69.08
59272;BME280;45043;51.068;7.026;2023-02-21T05:02:29;100848.16;;;4.79;68.85
59272;BME280;45043;51.068;7.026;2023-02-21T05:05:29;100842.03;;;4.79;69.29
59272;BME280;45043;51.068;7.026;2023-02-21T05:08:29;100859.06;;;4.84;69.04
59272;BME280;45043;51.068;7.026;2023-02-21T05:11:32;100860.63;;;4.95;68.69
59272;BME280;45043;51.068;7.026;2023-02-21T05:14:34;100862.00;;;4.99;68.64
59272;BME280;45043;51.068;7.026;2023-02-21T05:17:34;100863.09;;;4.97;68.53
59272;BME280;45043;51.068;7.026;2023-02-21T05:20:35;100871.69;;;4.99;69.10
59272;BME280;45043;51.068;7.026;2023-02-21T05:23:36;100869.59;;;5.20;69.10
59272;BME280;45043;51.068;7.026;2023-02-21T05:26:39;100867.81;;;5.38;68.69
59272;BME280;45043;51.068;7.026;2023-02-21T05:29:47;100863.13;;;5.50;68.00
59272;BME280;45043;51.068;7.026;2023-02-21T05:32:49;100861.31;;;5.51;67.90
59272;BME280;45043;51.068;7.026;2023-02-21T05:35:50;100862.34;;;5.58;67.32
59272;BME280;45043;51.068;7.026;2023-02-21T05:38:53;100858.47;;;5.70;67.27
59272;BME280;45043;51.068;7.026;2023-02-21T05:41:54;100854.56;;;5.82;67.08
59272;BME280;45043;51.068;7.026;2023-02-21T05:44:54;100849.81;;;5.86;66.39
59272;BME280;45043;51.068;7.026;2023-02-21T05:47:55;100861.28;;;6.03;66.11
59272;BME280;45043;51.068;7.026;2023-02-21T05:50:59;100856.03;;;6.11;65.73
59272;BME280;45043;51.068;7.026;2023-02-21T05:53:59;100857.63;;;6.30;65.87
59272;BME280;45043;51.068;7.026;2023-02-21T05:57:00;100862.78;;;6.39;65.19
59272;BME280;45043;51.068;7.026;2023-02-21T06:00:01;100864.63;;;6.47;64.33
59272;BME280;45043;51.068;7.026;2023-02-21T06:03:01;100860.78;;;6.42;64.44
59272;BME280;45043;51.068;7.026;2023-02-21T06:06:02;100860.66;;;6.51;64.60
59272;BME280;45043;51.068;7.026;2023-02-21T06:09:03;100868.78;;;6.66;64.59
59272;BME280;45043;51.068;7.026;2023-02-21T06:12:04;100858.59;;;6.79;64.09
59272;BME280;45043;51.068;7.026;2023-02-21T06:15:05;100853.88;;;6.91;63.67
59272;BME280;45043;51.068;7.026;2023-02-21T06:18:06;100850.91;;;7.02;63.14
59272;BME280;45043;51.068;7.026;2023-02-21T06:21:07;100845.13;;;7.07;62.83
59272;BME280;45043;51.068;7.026;2023-02-21T06:24:09;100854.22;;;7.13;62.29
59272;BME280;45043;51.068;7.026;2023-02-21T06:27:10;100859.97;;;7.16;62.20
59272;BME280;45043;51.068;7.026;2023-02-21T06:30:11;100860.31;;;7.21;61.93
59272;BME280;45043;51.068;7.026;2023-02-21T06:33:12;100870.06;;;7.21;61.65
59272;BME280;45043;51.068;7.026;2023-02-21T06:36:15;100868.91;;;7.23;61.57
59272;BME280;45043;51.068;7.026;2023-02-21T06:39:16;100859.16;;;7.16;61.46
59272;BME280;45043;51.068;7.026;2023-02-21T06:42:17;100863.94;;;7.12;61.71
59272;BME280;45043;51.068;7.026;2023-02-21T06:45:18;100869.91;;;7.14;61.57
59272;BME280;45043;51.068;7.026;2023-02-21T06:48:18;100870.53;;;7.16;61.77
59272;BME280;45043;51.068;7.026;2023-02-21T06:51:19;100863.47;;;7.17;61.64
59272;BME280;45043;51.068;7.026;2023-02-21T06:54:20;100867.44;;;7.13;61.25
59272;BME280;45043;51.068;7.026;2023-02-21T06:57:20;100870.88;;;7.05;61.84
59272;BME280;45043;51.068;7.026;2023-02-21T07:00:21;100876.16;;;7.05;62.03
59272;BME280;45043;51.068;7.026;2023-02-21T07:03:21;100871.38;;;7.08;61.70
59272;BME280;45043;51.068;7.026;2023-02-21T07:06:22;100876.31;;;7.03;61.91
59272;BME280;45043;51.068;7.026;2023-02-21T07:09:23;100878.13;;;7.03;62.06
59272;BME280;45043;51.068;7.026;2023-02-21T07:12:23;100868.56;;;7.02;61.93
59272;BME280;45043;51.068;7.026;2023-02-21T07:15:24;100873.34;;;7.06;61.98
59272;BME280;45043;51.068;7.026;2023-02-21T07:18:24;100871.03;;;7.11;61.74
59272;BME280;45043;51.068;7.026;2023-02-21T07:21:26;100878.97;;;7.11;61.92
59272;BME280;45043;51.068;7.026;2023-02-21T07:24:26;100872.22;;;7.09;61.65
59272;BME280;45043;51.068;7.026;2023-02-21T07:27:27;100868.91;;;7.07;61.95
59272;BME280;45043;51.068;7.026;2023-02-21T07:30:28;100872.03;;;7.10;61.77
59272;BME280;45043;51.068;7.026;2023-02-21T07:33:29;100874.69;;;7.10;61.78
59272;BME280;45043;51.068;7.026;2023-02-21T07:36:30;100875.00;;;7.07;61.93
59272;BME280;45043;51.068;7.026;2023-02-21T07:39:30;100871.53;;;7.07;61.86
59272;BME280;45043;51.068;7.026;2023-02-21T07:42:32;100876.50;;;7.02;62.03
59272;BME280;45043;51.068;7.026;2023-02-21T07:45:32;100876.81;;;6.91;61.92
59272;BME280;45043;51.068;7.026;2023-02-21T07:48:33;100873.44;;;6.80;62.51
59272;BME280;45043;51.068;7.026;2023-02-21T07:51:33;100879.38;;;6.74;62.47
59272;BME280;45043;51.068;7.026;2023-02-21T07:54:35;100884.63;;;6.66;62.76
59272;BME280;45043;51.068;7.026;2023-02-21T07:57:35;100886.94;;;6.61;63.10
59272;BME280;45043;51.068;7.026;2023-02-21T08:00:36;100889.88;;;6.50;63.25
59272;BME280;45043;51.068;7.026;2023-02-21T08:03:36;100894.78;;;6.45;63.58
59272;BME280;45043;51.068;7.026;2023-02-21T08:06:37;100897.91;;;6.40;63.83
59272;BME280;45043;51.068;7.026;2023-02-21T08:09:39;100892.28;;;6.35;64.01
59272;BME280;45043;51.068;7.026;2023-02-21T08:12:40;100888.16;;;6.32;64.25
59272;BME280;45043;51.068;7.026;2023-02-21T08:15:40;100891.09;;;6.29;64.33
59272;BME280;45043;51.068;7.026;2023-02-21T08:18:41;100883.78;;;6.23;64.49
59272;BME280;45043;51.068;7.026;2023-02-21T08:21:46;100875.75;;;6.25;64.50
59272;BME280;45043;51.068;7.026;2023-02-21T08:24:50;100877.88;;;6.21;64.82
59272;BME280;45043;51.068;7.026;2023-02-21T08:27:50;100890.22;;;6.21;64.75
59272;BME280;45043;51.068;7.026;2023-02-21T08:30:54;100879.69;;;6.21;64.70
59272;BME280;45043;51.068;7.026;2023-02-21T08:33:54;100883.63;;;6.17;64.95
59272;BME280;45043;51.068;7.026;2023-02-21T08:36:55;100884.44;;;6.17;64.94
59272;BME280;45043;51.068;7.026;2023-02-21T08:39:56;100873.38;;;6.13;65.14
59272;BME280;45043;51.068;7.026;2023-02-21T08:42:58;100878.19;;;6.18;64.94
59272;BME280;45043;51.068;7.026;2023-02-21T08:45:58;100875.84;;;6.15;65.38
59272;BME280;45043;51.068;7.026;2023-02-21T08:49:00;100880.00;;;6.18;65.18
59272;BME280;45043;51.068;7.026;2023-02-21T08:52:01;100885.91;;;6.20;65.10
59272;BME280;45043;51.068;7.026;2023-02-21T08:55:02;100882.00;;;6.24;65.22
59272;BME280;45043;51.068;7.026;2023-02-21T08:58:02;100887.44;;;6.22;65.24
59272;BME280;45043;51.068;7.026;2023-02-21T09:01:05;100885.09;;;6.19;65.05
59272;BME280;45043;51.068;7.026;2023-02-21T09:04:06;100886.91;;;6.19;65.36
59272;BME280;45043;51.068;7.026;2023-02-21T09:07:06;100884.44;;;6.17;65.18
59272;BME280;45043;51.068;7.026;2023-02-21T09:10:09;100881.94;;;6.15;65.31
59272;BME280;45043;51.068;7.026;2023-02-21T09:13:10;100885.56;;;6.14;65.62
59272;BME280;45043;51.068;7.026;2023-02-21T09:16:10;100877.19;;;6.19;65.16
59272;BME280;45043;51.068;7.026;2023-02-21T09:19:11;100865.28;;;6.15;65.22
59272;BME280;45043;51.068;7.026;2023-02-21T09:22:12;100867.00;;;6.24;64.94
59272;BME280;45043;51.068;7.026;2023-02-21T09:25:15;100872.78;;;6.28;64.86
59272;BME280;45043;51.068;7.026;2023-02-21T09:28:16;100865.69;;;6.28;64.64
59272;BME280;45043;51.068;7.026;2023-02-21T09:31:18;100865.53;;;6.30;64.94
59272;BME280;45043;51.068;7.026;2023-02-21T09:34:18;100857.00;;;6.36;64.68
59272;BME280;45043;51.068;7.026;2023-02-21T09:37:19;100861.44;;;6.35;64.53
59272;BME280;45043;51.068;7.026;2023-02-21T09:43:35;100855.19;;;6.45;64.19
59272;BME280;45043;51.068;7.026;2023-02-21T09:46:45;100865.44;;;6.48;64.44
59272;BME280;45043;51.068;7.026;2023-02-21T09:49:47;100857.19;;;6.51;64.28
59272;BME280;45043;51.068;7.026;2023-02-21T09:52:49;100862.16;;;6.54;64.38
59272;BME280;45043;51.068;7.026;2023-02-21T09:55:54;100858.34;;;6.56;64.06
59272;BME280;45043;51.068;7.026;2023-02-21T09:58:56;100861.34;;;6.53;64.09
59272;BME280;45043;51.068;7.026;2023-02-21T10:05:29;100865.25;;;6.41;64.46
59272;BME280;45043;51.068;7.026;2023-02-21T10:09:05;100859.66;;;6.44;64.39
59272;BME280;45043;51.068;7.026;2023-02-21T10:12:29;100860.16;;;6.48;64.38
59272;BME280;45043;51.068;7.026;2023-02-21T10:19:10;100861.50;;;6.52;64.40
59272;BME280;45043;51.068;7.026;2023-02-21T10:22:27;100855.88;;;6.55;64.34
59272;BME280;45043;51.068;7.026;2023-02-21T10:25:32;100861.38;;;6.61;64.46
59272;BME280;45043;51.068;7.026;2023-02-21T10:28:35;100852.28;;;6.64;64.14
59272;BME280;45043;51.068;7.026;2023-02-21T10:31:38;100852.44;;;6.62;63.93
59272;BME280;45043;51.068;7.026;2023-02-21T10:34:43;100856.53;;;6.49;64.15
59272;BME280;45043;51.068;7.026;2023-02-21T10:37:49;100851.19;;;6.32;64.61
59272;BME280;45043;51.068;7.026;2023-02-21T10:40:58;100857.69;;;6.12;64.68
59272;BME280;45043;51.068;7.026;2023-02-21T10:44:25;100860.25;;;5.96;65.09
59272;BME280;45043;51.068;7.026;2023-02-21T10:47:52;100860.22;;;5.87;65.47
59272;BME280;45043;51.068;7.026;2023-02-21T10:54:22;100858.09;;;5.65;66.38
59272;BME280;45043;51.068;7.026;2023-02-21T10:57:22;100866.16;;;5.63;66.69
59272;BME280;45043;51.068;7.026;2023-02-21T11:00:44;100852.84;;;5.65;66.94
59272;BME280;45043;51.068;7.026;2023-02-21T11:03:52;100844.81;;;5.75;66.53
59272;BME280;45043;51.068;7.026;2023-02-21T11:07:01;100848.34;;;5.83;66.89
59272;BME280;45043;51.068;7.026;2023-02-21T11:10:26;100846.22;;;5.87;66.75
59272;BME280;45043;51.068;7.026;2023-02-21T11:13:27;100844.22;;;5.89;66.93
59272;BME280;45043;51.068;7.026;2023-02-21T11:16:28;100839.44;;;5.84;66.77
59272;BME280;45043;51.068;7.026;2023-02-21T11:19:45;100843.00;;;5.75;66.76
59272;BME280;45043;51.068;7.026;2023-02-21T11:22:47;100832.78;;;5.72;66.83
59272;BME280;45043;51.068;7.026;2023-02-21T11:25:48;100828.81;;;5.68;66.69
59272;BME280;45043;51.068;7.026;2023-02-21T11:28:51;100827.31;;;5.65;66.98
59272;BME280;45043;51.068;7.026;2023-02-21T11:31:52;100824.19;;;5.70;66.99
59272;BME280;45043;51.068;7.026;2023-02-21T11:35:34;100821.06;;;5.75;66.78
59272;BME280;45043;51.068;7.026;2023-02-21T11:39:04;100813.25;;;5.83;66.73
59272;BME280;45043;51.068;7.026;2023-02-21T11:42:23;100813.75;;;5.86;66.23
59272;BME280;45043;51.068;7.026;2023-02-21T11:45:27;100801.56;;;5.94;66.34
59272;BME280;45043;51.068;7.026;2023-02-21T11:48:33;100801.94;;;5.99;66.03
59272;BME280;45043;51.068;7.026;2023-02-21T11:51:52;100790.88;;;5.95;66.07
59272;BME280;45043;51.068;7.026;2023-02-21T11:54:53;100794.69;;;6.01;66.03
59272;BME280;45043;51.068;7.026;2023-02-21T11:58:18;100784.81;;;6.03;65.80
59272;BME280;45043;51.068;7.026;2023-02-21T12:01:34;100779.34;;;6.04;66.02
59272;BME280;45043;51.068;7.026;2023-02-21T12:05:02;100783.31;;;6.08;65.75
59272;BME280;45043;51.068;7.026;2023-02-21T12:11:22;100776.09;;;6.10;65.94
59272;BME280;45043;51.068;7.026;2023-02-21T12:14:54;100768.19;;;6.10;65.70
59272;BME280;45043;51.068;7.026;2023-02-21T12:18:25;100769.00;;;6.11;65.72
59272;BME280;45043;51.068;7.026;2023-02-21T12:38:24;100747.34;;;6.50;65.03
59272;BME280;45043;51.068;7.026;2023-02-21T12:41:47;100736.13;;;6.56;64.60
59272;BME280;45043;51.068;7.026;2023-02-21T12:48:01;100724.56;;;6.49;65.28
59272;BME280;45043;51.068;7.026;2023-02-21T12:51:07;100733.78;;;6.53;64.75
59272;BME280;45043;51.068;7.026;2023-02-21T12:54:25;100725.22;;;6.51;64.62
59272;BME280;45043;51.068;7.026;2023-02-21T13:00:45;100717.00;;;6.70;64.34
59272;BME280;45043;51.068;7.026;2023-02-21T13:04:13;100719.94;;;6.75;64.33
59272;BME280;45043;51.068;7.026;2023-02-21T13:07:19;100721.28;;;6.79;64.08
59272;BME280;45043;51.068;7.026;2023-02-21T13:10:34;100718.69;;;6.88;64.04
59272;BME280;45043;51.068;7.026;2023-02-21T13:13:35;100711.41;;;6.90;64.04
59272;BME280;45043;51.068;7.026;2023-02-21T13:16:36;100717.66;;;6.97;64.12
59272;BME280;45043;51.068;7.026;2023-02-21T13:19:44;100719.47;;;7.04;64.00
59272;BME280;45043;51.068;7.026;2023-02-21T13:36:30;100695.84;;;7.27;63.18
59272;BME280;45043;51.068;7.026;2023-02-21T13:39:33;100678.66;;;7.15;63.25
59272;BME280;45043;51.068;7.026;2023-02-21T13:42:37;100678.38;;;7.02;63.59
59272;BME280;45043;51.068;7.026;2023-02-21T13:45:39;100673.25;;;7.00;63.61
59272;BME280;45043;51.068;7.026;2023-02-21T13:48:39;100667.97;;;7.00;63.34
59272;BME280;45043;51.068;7.026;2023-02-21T13:51:47;100665.66;;;6.81;63.63
59272;BME280;45043;51.068;7.026;2023-02-21T14:01:21;100647.00;;;6.82;63.58
59272;BME280;45043;51.068;7.026;2023-02-21T14:08:05;100657.06;;;6.79;63.97
59272;BME280;45043;51.068;7.026;2023-02-21T14:14:24;100652.31;;;6.91;63.62
59272;BME280;45043;51.068;7.026;2023-02-21T14:17:27;100647.19;;;6.81;64.25
59272;BME280;45043;51.068;7.026;2023-02-21T14:20:28;100649.66;;;6.74;63.94
59272;BME280;45043;51.068;7.026;2023-02-21T14:23:49;100654.63;;;6.45;64.60
59272;BME280;45043;51.068;7.026;2023-02-21T14:33:31;100641.94;;;6.40;64.91
59272;BME280;45043;51.068;7.026;2023-02-21T14:36:32;100649.34;;;6.61;64.65
59272;BME280;45043;51.068;7.026;2023-02-21T14:39:35;100636.47;;;6.66;64.47
59272;BME280;45043;51.068;7.026;2023-02-21T14:53:08;100617.47;;;8.28;61.31
59272;BME280;45043;51.068;7.026;2023-02-21T15:02:40;100601.53;;;9.69;56.65
59272;BME280;45043;51.068;7.026;2023-02-21T15:08:50;100605.81;;;10.35;55.52
59272;BME280;45043;51.068;7.026;2023-02-21T15:11:51;100606.75;;;10.70;54.57
59272;BME280;45043;51.068;7.026;2023-02-21T15:14:52;100611.03;;;10.99;53.32
59272;BME280;45043;51.068;7.026;2023-02-21T15:18:03;100593.50;;;11.11;52.94
59272;BME280;45043;51.068;7.026;2023-02-21T15:24:13;100586.63;;;11.85;50.93
59272;BME280;45043;51.068;7.026;2023-02-21T15:27:14;100590.34;;;12.04;50.27
59272;BME280;45043;51.068;7.026;2023-02-21T15:30:21;100583.38;;;12.16;49.42
59272;BME280;45043;51.068;7.026;2023-02-21T15:33:23;100581.53;;;12.36;49.29
59272;BME280;45043;51.068;7.026;2023-02-21T15:36:27;100587.47;;;12.78;48.35
59272;BME280;45043;51.068;7.026;2023-02-21T15:39:33;100587.91;;;12.29;47.97
59272;BME280;45043;51.068;7.026;2023-02-21T15:42:34;100587.00;;;11.82;49.24
59272;BME280;45043;51.068;7.026;2023-02-21T15:45:44;100578.44;;;12.13;48.44
59272;BME280;45043;51.068;7.026;2023-02-21T15:48:47;100579.25;;;12.73;47.27
59272;BME280;45043;51.068;7.026;2023-02-21T15:51:49;100575.09;;;12.97;46.56
59272;BME280;45043;51.068;7.026;2023-02-21T15:54:49;100574.16;;;13.36;45.88
59272;BME280;45043;51.068;7.026;2023-02-21T15:58:20;100580.03;;;13.00;46.01
59272;BME280;45043;51.068;7.026;2023-02-21T16:01:21;100577.22;;;12.62;46.81
59272;BME280;45043;51.068;7.026;2023-02-21T16:04:22;100574.78;;;12.34;47.14
59272;BME280;45043;51.068;7.026;2023-02-21T16:07:31;100577.84;;;12.04;47.22
59272;BME280;45043;51.068;7.026;2023-02-21T16:10:36;100578.31;;;11.53;48.30
59272;BME280;45043;51.068;7.026;2023-02-21T16:13:40;100579.31;;;11.39;48.32
59272;BME280;45043;51.068;7.026;2023-02-21T16:16:41;100579.97;;;11.06;49.24
59272;BME280;45043;51.068;7.026;2023-02-21T16:19:47;100580.44;;;10.82;49.74
59272;BME280;45043;51.068;7.026;2023-02-21T16:23:30;100579.59;;;10.46;50.23
59272;BME280;45043;51.068;7.026;2023-02-21T16:26:31;100578.09;;;10.16;51.09
59272;BME280;45043;51.068;7.026;2023-02-21T16:29:31;100587.50;;;9.97;51.84
59272;BME280;45043;51.068;7.026;2023-02-21T16:32:33;100575.44;;;9.73;52.28
59272;BME280;45043;51.068;7.026;2023-02-21T16:35:34;100577.59;;;9.48;52.83
59272;BME280;45043;51.068;7.026;2023-02-21T16:38:35;100579.28;;;9.19;53.31
59272;BME280;45043;51.068;7.026;2023-02-21T16:41:35;100579.22;;;8.98;54.25
59272;BME280;45043;51.068;7.026;2023-02-21T16:44:36;100571.81;;;8.78;54.51
59272;BME280;45043;51.068;7.026;2023-02-21T16:47:36;100579.09;;;8.47;55.18
59272;BME280;45043;51.068;7.026;2023-02-21T16:50:38;100578.28;;;8.23;55.68
59272;BME280;45043;51.068;7.026;2023-02-21T16:53:39;100582.22;;;8.04;55.99
59272;BME280;45043;51.068;7.026;2023-02-21T16:56:42;100582.00;;;7.91;56.61
59272;BME280;45043;51.068;7.026;2023-02-21T16:59:43;100574.69;;;7.70;57.23
59272;BME280;45043;51.068;7.026;2023-02-21T17:02:44;100579.03;;;7.63;57.59
59272;BME280;45043;51.068;7.026;2023-02-21T17:05:45;100580.72;;;7.56;57.96
59272;BME280;45043;51.068;7.026;2023-02-21T17:08:46;100575.47;;;7.48;58.10
59272;BME280;45043;51.068;7.026;2023-02-21T17:11:47;100579.19;;;7.39;58.29
59272;BME280;45043;51.068;7.026;2023-02-21T17:14:47;100585.97;;;7.33;58.59
59272;BME280;45043;51.068;7.026;2023-02-21T17:17:48;100587.81;;;7.24;58.82
59272;BME280;45043;51.068;7.026;2023-02-21T17:20:48;100591.81;;;7.20;59.22
59272;BME280;45043;51.068;7.026;2023-02-21T17:23:49;100591.00;;;7.11;59.32
59272;BME280;45043;51.068;7.026;2023-02-21T17:26:51;100591.19;;;7.10;59.65
59272;BME280;45043;51.068;7.026;2023-02-21T17:29:52;100590.69;;;7.06;59.48
59272;BME280;45043;51.068;7.026;2023-02-21T17:32:52;100593.50;;;7.05;59.66
59272;BME280;45043;51.068;7.026;2023-02-21T17:35:53;100594.00;;;7.00;59.88
59272;BME280;45043;51.068;7.026;2023-02-21T17:38:54;100598.16;;;6.95;60.00
59272;BME280;45043;51.068;7.026;2023-02-21T17:41:55;100595.03;;;6.91;60.21
59272;BME280;45043;51.068;7.026;2023-02-21T17:44:56;100587.78;;;6.85;60.29
59272;BME280;45043;51.068;7.026;2023-02-21T17:47:58;100588.78;;;6.84;60.47
59272;BME280;45043;51.068;7.026;2023-02-21T17:50:58;100581.84;;;6.75;60.63
59272;BME280;45043;51.068;7.026;2023-02-21T17:53:58;100595.03;;;6.75;60.82
59272;BME280;45043;51.068;7.026;2023-02-21T17:56:59;100603.31;;;6.72;61.03
59272;BME280;45043;51.068;7.026;2023-02-21T17:59:59;100602.16;;;6.66;61.22
59272;BME280;45043;51.068;7.026;2023-02-21T18:03:01;100605.47;;;6.68;60.90
59272;BME280;45043;51.068;7.026;2023-02-21T18:06:03;100599.50;;;6.66;61.12
59272;BME280;45043;51.068;7.026;2023-02-21T18:09:04;100601.84;;;6.61;61.06
59272;BME280;45043;51.068;7.026;2023-02-21T18:12:06;100593.25;;;6.59;61.25
59272;BME280;45043;51.068;7.026;2023-02-21T18:15:07;100601.50;;;6.56;61.40
59272;BME280;45043;51.068;7.026;2023-02-21T18:18:09;100601.69;;;6.54;61.19
59272;BME280;45043;51.068;7.026;2023-02-21T18:21:10;100592.59;;;6.49;61.60
59272;BME280;45043;51.068;7.026;2023-02-21T18:24:12;100595.56;;;6.46;61.37
59272;BME280;45043;51.068;7.026;2023-02-21T18:27:12;100588.81;;;6.43;61.61